Time;durP1;ratioP1;P1;durP2;ratioP2;P2;SDS_P1;SDS_P2;PMS_P1;PMS_P2;Temp;Humidity;BMP_temperature;BMP_pressure;BME280_temperature;BME280_humidity;BME280_pressure;Samples;Min_cycle;Max_cycle;Signal;HPM_P1;HPM_P2
2023/02/18 00:02:13;;;;;;;22.15;9.65;;;;;;;-142.75;100.00;77767.31;4992760;28;20065;-66
2023/02/18 00:04:38;;;;;;;;;;;;;;;-142.75;100.00;77755.50;4994258;28;20436;-67
2023/02/18 00:07:03;;;;;;;26.25;10.50;;;;;;;-142.75;100.00;77753.53;4993725;28;19918;-67
2023/02/18 00:09:29;;;;;;;22.42;10.25;;;;;;;-142.75;100.00;77763.38;4993462;28;20375;-67
2023/02/18 00:11:54;;;;;;;;;;;;;;;-142.75;100.00;77747.63;4994222;28;20512;-67
2023/02/18 00:14:19;;;;;;;21.02;9.70;;;;;;;-142.75;100.00;77739.75;4993701;28;19916;-67
2023/02/18 00:16:44;;;;;;;;;;;;;;;-142.75;100.00;77733.84;4980823;28;20026;-67
2023/02/18 00:19:16;;;;;;;22.27;9.68;;;;;;;-142.75;100.00;77755.50;4993329;28;19964;-67
2023/02/18 00:21:42;;;;;;;24.33;9.82;;;;;;;-142.75;100.00;77749.59;4993733;28;20631;-67
2023/02/18 00:24:10;;;;;;;23.15;9.02;;;;;;;-142.75;100.00;77743.69;4975886;28;20113;-67
2023/02/18 00:26:35;;;;;;;26.08;10.68;;;;;;;-142.75;100.00;77735.81;4993393;28;20030;-67
2023/02/18 00:29:01;;;;;;;27.80;10.20;;;;;;;-142.75;100.00;77735.81;4993137;28;20033;-67
2023/02/18 00:31:30;;;;;;;25.02;9.70;;;;;;;-142.75;100.00;77727.94;4993419;28;20038;-67
2023/02/18 00:33:57;;;;;;;20.63;9.23;;;;;;;-142.75;100.00;77741.72;4993388;28;20491;-66
2023/02/18 00:36:23;;;;;;;30.50;10.75;;;;;;;-142.75;100.00;77731.88;4993413;28;20026;-66
2023/02/18 00:38:51;;;;;;;22.40;9.75;;;;;;;-142.75;100.00;77727.94;4992729;28;20026;-66
2023/02/18 00:41:17;;;;;;;24.38;10.32;;;;;;;-142.75;100.00;77722.00;5005210;28;20113;-66
2023/02/18 00:43:43;;;;;;;27.50;10.52;;;;;;;-142.75;100.00;77696.41;4993067;28;20575;-67
2023/02/18 00:46:08;;;;;;;28.70;11.15;;;;;;;-142.75;100.00;77710.19;4992972;28;20101;-67
2023/02/18 00:48:34;;;;;;;27.45;10.48;;;;;;;-142.75;100.00;77704.28;4992690;28;20061;-67
2023/02/18 00:51:00;;;;;;;27.65;10.15;;;;;;;-142.75;100.00;77706.25;4993021;28;20379;-67
2023/02/18 00:53:27;;;;;;;26.92;12.77;;;;;;;-142.75;100.00;77706.25;4992913;28;20049;-67
2023/02/18 00:55:53;;;;;;;24.10;10.70;;;;;;;-142.75;100.00;77706.25;4992974;28;20026;-67
2023/02/18 00:58:18;;;;;;;24.13;11.27;;;;;;;-142.75;100.00;77696.41;4992362;28;20501;-67
2023/02/18 01:00:43;;;;;;;;;;;;;;;-142.75;100.00;77684.59;4993075;28;20030;-67
2023/02/18 01:03:09;;;;;;;26.15;10.88;;;;;;;-142.75;100.00;77680.66;4992921;28;19909;-67
2023/02/18 01:05:36;;;;;;;28.33;11.68;;;;;;;-142.75;100.00;77676.72;4992618;28;20033;-67
2023/02/18 01:08:02;;;;;;;32.63;12.30;;;;;;;-142.75;100.00;77672.78;4991050;28;20487;-67
2023/02/18 01:10:27;;;;;;;30.13;12.35;;;;;;;-142.75;100.00;77662.94;4992624;28;20037;-67
2023/02/18 01:12:52;;;;;;;37.78;12.23;;;;;;;-142.75;100.00;77660.97;4992672;28;20518;-67
2023/02/18 01:15:18;;;;;;;30.08;12.40;;;;;;;-142.75;100.00;77655.06;4992487;28;20022;-67
2023/02/18 01:17:43;;;;;;;35.92;13.93;;;;;;;-142.75;100.00;77657.03;4992417;28;20024;-67
2023/02/18 01:20:10;;;;;;;29.95;12.77;;;;;;;-142.75;100.00;77659.00;4992362;28;20084;-67
2023/02/18 01:22:36;;;;;;;29.25;12.25;;;;;;;-142.75;100.00;77657.03;4992341;28;20022;-67
2023/02/18 01:25:01;;;;;;;38.05;13.73;;;;;;;-142.75;100.00;77649.16;4992270;28;20383;-67
2023/02/18 01:27:27;;;;;;;32.55;12.48;;;;;;;-142.75;100.00;77649.16;4992318;28;20128;-67
2023/02/18 01:29:52;;;;;;;35.95;13.55;;;;;;;-142.75;100.00;77633.41;4991986;28;20022;-67
2023/02/18 01:32:17;;;;;;;29.05;11.88;;;;;;;-142.75;100.00;77633.41;4992289;28;20024;-67
2023/02/18 01:34:43;;;;;;;36.60;13.82;;;;;;;-142.75;100.00;77635.38;4992276;28;20061;-67
2023/02/18 01:37:08;;;;;;;;;;;;;;;-142.75;100.00;77627.50;4992526;28;20014;-67
2023/02/18 01:39:33;;;;;;;25.77;12.02;;;;;;;-142.75;100.00;77625.53;4991849;28;19936;-67
2023/02/18 01:41:59;;;;;;;;;;;;;;;-142.75;100.00;77627.50;4992492;28;20677;-67
2023/02/18 01:44:26;;;;;;;40.30;14.45;;;;;;;-142.75;100.00;77621.59;4992031;28;19968;-66
2023/02/18 01:46:51;;;;;;;32.17;13.30;;;;;;;-142.75;100.00;77603.88;4991902;28;20368;-67
2023/02/18 01:49:31;;;;;;;43.00;14.82;;;;;;;-142.75;100.00;77607.81;4974147;28;20060;-66
2023/02/18 01:52:08;;;;;;;37.17;14.70;;;;;;;-142.75;100.00;77603.88;4991929;28;20030;-66
2023/02/18 01:54:40;;;;;;;34.85;14.70;;;;;;;-142.75;100.00;77584.19;4991821;28;20018;-66
2023/02/18 01:57:07;;;;;;;42.25;15.55;;;;;;;-142.75;100.00;77592.06;4991744;28;20033;-67
2023/02/18 01:59:42;;;;;;;40.45;15.43;;;;;;;-142.75;100.00;77580.25;4973898;28;20037;-67
2023/02/18 02:02:13;;;;;;;41.08;15.48;;;;;;;-142.75;100.00;77590.09;4991703;28;20025;-67
2023/02/18 02:04:38;;;;;;;38.65;15.38;;;;;;;-142.75;100.00;77586.16;4974085;28;20546;-67
2023/02/18 02:07:04;;;;;;;40.20;15.55;;;;;;;-142.75;100.00;77582.22;4991653;28;20030;-67
2023/02/18 02:09:31;;;;;;;40.95;16.10;;;;;;;-142.75;100.00;77576.31;4973951;28;20378;-66
2023/02/18 02:12:06;;;;;;;35.50;14.65;;;;;;;-142.75;100.00;77568.44;4991565;28;20018;-67
2023/02/18 02:15:05;;;;;;;31.20;13.15;;;;;;;-142.75;100.00;77560.56;4991255;28;20046;-67
2023/02/18 02:17:45;;;;;;;37.42;13.82;;;;;;;-142.75;100.00;77566.47;4991402;28;20105;-67
2023/02/18 02:20:29;;;;;;;31.73;11.18;;;;;;;-142.75;100.00;77546.78;4991498;28;20471;-67
2023/02/18 02:23:29;;;;;;;30.70;12.00;;;;;;;-142.75;100.00;77546.78;4991317;28;20034;-66
2023/02/18 02:26:11;;;;;;;34.45;12.95;;;;;;;-142.75;100.00;77546.78;4991438;28;20018;-67
2023/02/18 02:29:08;;;;;;;32.40;11.95;;;;;;;-142.75;100.00;77558.59;4990980;28;20531;-67
2023/02/18 02:32:10;;;;;;;35.23;11.70;;;;;;;-142.75;100.00;77548.75;4973902;28;20361;-67
2023/02/18 02:34:46;;;;;;;26.48;10.65;;;;;;;-142.75;100.00;77546.78;4989999;28;20026;-67
2023/02/18 02:37:49;;;;;;;23.52;10.20;;;;;;;-142.75;100.00;77538.91;4991140;28;20101;-66
2023/02/18 02:40:37;;;;;;;21.58;8.35;;;;;;;-142.75;100.00;77531.03;4991009;28;20030;-66
2023/02/18 02:43:11;;;;;;;18.05;8.35;;;;;;;-142.75;100.00;77527.09;4991259;28;20076;-66
2023/02/18 02:45:42;;;;;;;16.58;7.57;;;;;;;-142.75;100.00;77529.06;4991175;28;20080;-67
2023/02/18 02:48:29;;;;;;;15.95;6.57;;;;;;;-142.75;100.00;77529.06;4990784;28;20566;-66
2023/02/18 02:51:00;;;;;;;;;;;;;;;-142.75;100.00;77517.25;4991677;28;20069;-66
2023/02/18 02:53:28;;;;;;;12.00;5.38;;;;;;;-142.75;100.00;77523.16;4990455;28;19916;-66
2023/02/18 02:55:55;;;;;;;13.15;5.55;;;;;;;-142.75;100.00;77507.41;4991137;28;20661;-66
2023/02/18 02:58:21;;;;;;;10.15;4.43;;;;;;;-142.75;100.00;77507.41;4990587;28;20038;-66
2023/02/18 03:01:09;;;;;;;12.95;4.82;;;;;;;-142.75;100.00;77499.53;4973734;28;20026;-67
2023/02/18 03:03:44;;;;;;;9.65;3.88;;;;;;;-142.75;100.00;77499.53;4991016;28;20513;-66
2023/02/18 03:06:40;;;;;;;8.98;3.55;;;;;;;-142.75;100.00;77487.72;4973500;28;20019;-67
2023/02/18 03:09:29;;;;;;;8.82;3.92;;;;;;;-142.75;100.00;77491.66;4990543;28;20040;-66
2023/02/18 03:12:16;;;;;;;10.75;4.30;;;;;;;-142.75;100.00;77497.56;4973646;28;20066;-66
2023/02/18 03:15:03;;;;;;;12.35;4.75;;;;;;;-142.75;100.00;77493.63;4991034;28;20022;-67
2023/02/18 03:17:34;;;;;;;11.85;4.88;;;;;;;-142.75;100.00;77487.72;4973147;28;20019;-66
2023/02/18 03:20:12;;;;;;;13.57;5.85;;;;;;;-142.75;100.00;77483.78;4973171;28;20503;-66
2023/02/18 03:22:42;;;;;;;15.55;5.85;;;;;;;-142.75;100.00;77487.72;4991008;28;20080;-67
2023/02/18 03:25:09;;;;;;;17.73;5.75;;;;;;;-142.75;100.00;77475.91;4978282;28;20010;-67
2023/02/18 03:27:42;;;;;;;16.10;5.40;;;;;;;-142.75;100.00;77475.91;4976820;28;20031;-66
2023/02/18 03:30:16;;;;;;;14.38;5.65;;;;;;;-142.75;100.00;77460.13;4994518;28;20014;-66
2023/02/18 03:32:44;;;;;;;14.10;5.70;;;;;;;-142.75;100.00;77460.13;4994784;28;20415;-66
2023/02/18 03:35:14;;;;;;;12.23;5.13;;;;;;;-142.75;100.00;77450.28;4994484;28;20018;-66
2023/02/18 03:37:45;;;;;;;9.75;4.50;;;;;;;-142.75;100.00;77450.28;4994194;28;20019;-66
2023/02/18 03:40:11;;;;;;;14.45;5.32;;;;;;;-142.75;100.00;77438.47;4994072;28;20061;-67
2023/02/18 03:42:37;;;;;;;18.88;5.90;;;;;;;-142.75;100.00;77436.50;4994304;28;20420;-67
2023/02/18 03:45:03;;;;;;;12.73;5.57;;;;;;;-142.75;100.00;77430.59;4994138;28;20014;-66
2023/02/18 03:47:28;;;;;;;10.85;4.72;;;;;;;-142.75;100.00;77428.63;4994281;28;20018;-67
2023/02/18 03:49:53;;;;;;;11.07;4.28;;;;;;;-142.75;100.00;77434.53;4993875;28;20034;-67
2023/02/18 03:52:19;;;;;;;10.60;4.63;;;;;;;-142.75;100.00;77432.56;4994205;28;20018;-66
2023/02/18 03:54:44;;;;;;;;;;;;;;;-142.75;100.00;77418.78;4994459;28;20422;-66
2023/02/18 03:57:09;;;;;;;12.82;5.22;;;;;;;-142.75;100.00;77422.72;4993939;28;19968;-66
2023/02/18 03:59:35;;;;;;;9.85;5.10;;;;;;;-142.75;100.00;77408.94;4993755;28;20033;-66
2023/02/18 04:02:01;;;;;;;10.95;4.97;;;;;;;-142.75;100.00;77405.00;4993836;28;20502;-66
2023/02/18 04:04:27;;;;;;;10.73;4.50;;;;;;;-142.75;100.00;77406.97;4993818;28;20022;-67
2023/02/18 04:06:52;;;;;;;11.25;4.47;;;;;;;-142.75;100.00;77406.97;4993817;28;20080;-67
2023/02/18 04:09:18;;;;;;;9.85;4.35;;;;;;;-142.75;100.00;77420.75;4993391;28;20026;-66
2023/02/18 04:11:43;;;;;;;;;;;;;;;-142.75;100.00;77410.91;4994254;28;20022;-67
2023/02/18 04:14:11;;;;;;;11.82;4.28;;;;;;;-142.75;100.00;77406.97;4993809;28;19910;-67
2023/02/18 04:16:37;;;;;;;10.00;4.68;;;;;;;-142.75;100.00;77410.91;4976037;28;20029;-67
2023/02/18 04:19:02;;;;;;;11.68;5.55;;;;;;;-142.75;100.00;77405.00;4993375;28;20026;-67
2023/02/18 04:21:27;;;;;;;11.43;5.63;;;;;;;-142.75;100.00;77401.06;4993571;28;20041;-67
2023/02/18 04:23:53;;;;;;;15.02;6.22;;;;;;;-142.75;100.00;77405.00;4993513;28;20023;-67
2023/02/18 04:26:18;;;;;;;14.45;6.28;;;;;;;-142.75;100.00;77397.13;4993483;28;20030;-67
2023/02/18 04:28:43;;;;;;;15.82;6.40;;;;;;;-142.75;100.00;77397.13;4993182;28;20026;-66
2023/02/18 04:31:10;;;;;;;15.68;7.18;;;;;;;-142.75;100.00;77414.84;4993599;28;20026;-67
2023/02/18 04:33:35;;;;;;;13.23;5.90;;;;;;;-142.75;100.00;77405.00;4992067;28;20050;-67
2023/02/18 04:36:01;;;;;;;13.35;6.50;;;;;;;-142.75;100.00;77406.97;4992782;28;20054;-66
2023/02/18 04:38:26;;;;;;;15.00;7.32;;;;;;;-142.75;100.00;77395.16;4992933;28;20077;-66
2023/02/18 04:40:51;;;;;;;16.85;8.13;;;;;;;-142.75;100.00;77405.00;4993416;28;20360;-66
2023/02/18 04:43:17;;;;;;;19.95;8.45;;;;;;;-142.75;100.00;77401.06;4992267;28;20108;-66
2023/02/18 04:45:42;;;;;;;24.58;8.85;;;;;;;-142.75;100.00;77393.19;5008085;28;20025;-67
2023/02/18 04:48:07;;;;;;;21.70;9.27;;;;;;;-142.75;100.00;77381.38;4992785;28;20106;-66
2023/02/18 04:50:33;;;;;;;20.60;9.00;;;;;;;-142.75;100.00;77375.47;4993143;28;20042;-66
2023/02/18 04:52:58;;;;;;;26.35;10.27;;;;;;;-142.75;100.00;77379.41;4993081;28;20487;-67
2023/02/18 04:55:23;;;;;;;22.27;10.00;;;;;;;-142.75;100.00;77381.38;4992902;28;20025;-67
2023/02/18 04:57:48;;;;;;;;;;;;;;;-142.75;100.00;77369.56;4991779;28;20061;-66
2023/02/18 05:00:17;;;;;;;22.58;9.45;;;;;;;-142.75;100.00;77375.47;4992791;28;20012;-66
2023/02/18 05:02:43;;;;;;;20.15;9.65;;;;;;;-142.75;100.00;77373.50;4992830;28;20029;-66
2023/02/18 05:05:08;;;;;;;15.20;7.70;;;;;;;-142.75;100.00;77377.44;4992768;28;20015;-67
2023/02/18 05:07:33;;;;;;;19.10;8.02;;;;;;;-142.75;100.00;77367.59;4992503;28;20494;-66
2023/02/18 05:09:58;;;;;;;19.13;7.45;;;;;;;-142.75;100.00;77371.53;4992469;28;20034;-66
2023/02/18 05:12:24;;;;;;;;;;;;;;;-142.75;100.00;77361.69;4993130;28;20019;-66
2023/02/18 05:14:49;;;;;;;20.42;8.52;;;;;;;-142.75;100.00;77373.50;4992600;28;20264;-66
2023/02/18 05:17:14;;;;;;;17.30;8.10;;;;;;;-142.75;100.00;77359.72;4992385;28;20076;-66
2023/02/18 05:19:40;;;;;;;18.85;8.60;;;;;;;-142.75;100.00;77353.81;4992337;28;20034;-67
2023/02/18 05:22:05;;;;;;;21.50;7.53;;;;;;;-142.75;100.00;77351.84;4992529;28;20100;-67
2023/02/18 05:24:30;;;;;;;;;;;;;;;-142.75;100.00;77342.00;4992827;28;20083;-67
2023/02/18 05:26:55;;;;;;;19.05;8.45;;;;;;;-142.75;100.00;77347.91;4992337;28;20337;-66
2023/02/18 05:29:21;;;;;;;24.58;9.98;;;;;;;-142.75;100.00;77353.81;4991912;28;20463;-66
2023/02/18 05:31:46;;;;;;;24.40;9.40;;;;;;;-142.75;100.00;77349.88;4992215;28;20583;-66
2023/02/18 05:34:11;;;;;;;;;;;;;;;-142.75;100.00;77330.19;4992661;28;20026;-66
2023/02/18 05:36:37;;;;;;;18.52;7.88;;;;;;;-142.75;100.00;77324.28;4990899;28;19928;-66
2023/02/18 05:39:02;;;;;;;;;;;;;;;-142.75;100.00;77328.22;4990851;28;20029;-66
2023/02/18 05:41:28;;;;;;;21.33;8.52;;;;;;;-142.75;100.00;77326.25;4992235;28;19932;-66
2023/02/18 05:46:37;;;;;;;24.63;9.20;;;;;;;-142.75;100.00;77326.25;4990874;28;20160;-66
2023/02/18 05:49:02;;;;;;;28.35;9.68;;;;;;;-142.75;100.00;77342.00;4990742;28;20515;-67
2023/02/18 05:51:27;;;;;;;25.38;9.50;;;;;;;-142.75;100.00;77338.06;4974398;28;20169;-67
2023/02/18 05:53:54;;;;;;;28.02;10.10;;;;;;;-142.75;100.00;77351.84;4991948;28;20504;-67
2023/02/18 05:56:19;;;;;;;24.20;9.48;;;;;;;-142.75;100.00;77342.00;4991856;28;20064;-66
2023/02/18 05:58:45;;;;;;;27.85;9.85;;;;;;;-142.75;100.00;77334.13;5005110;23;20113;-65
2023/02/18 06:01:10;;;;;;;27.40;9.13;;;;;;;-142.75;100.00;77330.19;4990289;28;20074;-63
2023/02/18 06:03:35;;;;;;;;;;;;;;;-142.75;100.00;77330.19;4991720;28;20108;-65
2023/02/18 06:06:01;;;;;;;30.58;9.52;;;;;;;-142.75;100.00;77347.91;4991504;28;19957;-66
2023/02/18 06:08:26;;;;;;;;;;;;;;;-142.75;100.00;77336.09;4974406;28;20710;-65
2023/02/18 06:10:52;;;;;;;27.05;9.60;;;;;;;-142.75;100.00;77336.09;4991560;28;19957;-65
2023/02/18 06:13:17;;;;;;;26.27;9.30;;;;;;;-142.75;100.00;77336.09;4991686;28;20024;-65
2023/02/18 06:15:42;;;;;;;45.38;11.65;;;;;;;-142.75;100.00;77334.13;4991468;28;20049;-65
2023/02/18 06:18:08;;;;;;;34.45;10.18;;;;;;;-142.75;100.00;77340.03;4991055;28;20056;-67
2023/02/18 06:20:33;;;;;;;27.52;10.55;;;;;;;-142.75;100.00;77330.19;4991476;28;20018;-63
2023/02/18 06:22:58;;;;;;;30.00;10.30;;;;;;;-142.75;100.00;77328.22;4991349;28;20748;-64
2023/02/18 06:25:24;;;;;;;25.67;9.30;;;;;;;-142.75;100.00;77330.19;4991304;28;20053;-66
2023/02/18 06:27:49;;;;;;;29.45;8.07;;;;;;;-142.75;100.00;77334.13;4991251;28;20110;-65
2023/02/18 06:30:14;;;;;;;25.42;8.57;;;;;;;-142.75;100.00;77332.16;4985448;28;20034;-65
2023/02/18 06:32:40;;;;;;;23.27;7.70;;;;;;;-142.75;100.00;77336.09;4990726;28;20064;-65
2023/02/18 06:35:06;;;;;;;18.98;7.85;;;;;;;-142.75;100.00;77334.13;4991026;28;20014;-65
2023/02/18 06:37:31;;;;;;;27.08;8.02;;;;;;;-142.75;100.00;77342.00;4990989;28;20026;-63
2023/02/18 06:39:57;;;;;;;24.73;6.78;;;;;;;-142.75;100.00;77338.06;4992650;28;20135;-65
2023/02/18 06:42:22;;;;;;;18.70;7.78;;;;;;;-142.75;100.00;77353.81;4993890;28;20499;-65
2023/02/18 06:44:47;;;;;;;29.60;7.40;;;;;;;-142.75;100.00;77353.81;4993042;28;20030;-64
2023/02/18 06:47:13;;;;;;;19.88;6.50;;;;;;;-142.75;100.00;77351.84;4991248;28;20045;-65
2023/02/18 06:49:38;;;;;;;;;;;;;;;-142.75;100.00;77349.88;4991347;28;20038;-65
2023/02/18 06:52:04;;;;;;;21.98;5.93;;;;;;;-142.75;100.00;77365.63;4991057;28;20338;-64
2023/02/18 06:54:30;;;;;;;23.80;5.93;;;;;;;-142.75;100.00;77359.72;4991118;28;20498;-65
2023/02/18 06:56:55;;;;;;;34.03;6.32;;;;;;;-142.75;100.00;77357.75;4991110;28;20026;-65
2023/02/18 06:59:20;;;;;;;31.13;5.95;;;;;;;-142.75;100.00;77369.56;4974589;28;20053;-65
2023/02/18 07:01:45;;;;;;;;;;;;;;;-142.75;100.00;77383.34;4995516;28;20053;-65
2023/02/18 07:04:11;;;;;;;30.75;6.18;;;;;;;-142.75;100.00;77365.63;4993135;28;19926;-65
2023/02/18 07:06:36;;;;;;;31.05;5.68;;;;;;;-142.75;100.00;77367.59;4994517;28;20546;-66
2023/02/18 07:09:01;;;;;;;;;;;;;;;-142.75;100.00;77379.41;4994558;28;20034;-65
2023/02/18 07:11:26;;;;;;;27.92;5.10;;;;;;;-142.75;100.00;77397.13;4994582;28;19936;-65
2023/02/18 07:13:52;;;;;;;;;;;;;;;-142.75;100.00;77383.34;4994823;28;20080;-65
2023/02/18 07:16:17;;;;;;;26.45;4.70;;;;;;;-142.75;100.00;77379.41;4994417;28;19909;-65
2023/02/18 07:18:42;;;;;;;;;;;;;;;-142.75;100.00;77385.31;4969342;28;20022;-65
2023/02/18 07:21:08;;;;;;;31.40;4.30;;;;;;;-142.75;100.00;77401.06;4994373;28;19909;-65
2023/02/18 07:23:33;;;;;;;26.98;4.38;;;;;;;-142.75;100.00;77397.13;4992511;28;20034;-66
2023/02/18 07:26:07;;;;;;;24.98;3.80;;;;;;;-142.75;100.00;77391.22;4994136;28;20025;-65
2023/02/18 07:28:32;;;;;;;27.58;3.30;;;;;;;-142.75;100.00;77412.88;4993825;28;20033;-65
2023/02/18 07:30:57;;;;;;;13.43;2.83;;;;;;;-142.75;100.00;77418.78;4994168;28;20030;-66
2023/02/18 07:33:23;;;;;;;22.73;3.05;;;;;;;-142.75;100.00;77412.88;4974569;28;20169;-65
2023/02/18 07:35:53;;;;;;;37.38;3.58;;;;;;;-142.75;100.00;77424.69;4993998;28;20037;-65
2023/02/18 07:38:18;;;;;;;18.83;2.30;;;;;;;-142.75;100.00;77410.91;4994405;28;20022;-65
2023/02/18 07:40:44;;;;;;;17.42;2.75;;;;;;;-142.75;100.00;77418.78;4994487;28;20406;-66
2023/02/18 07:43:09;;;;;;;;;;;;;;;-142.75;100.00;77420.75;4994811;28;20026;-63
2023/02/18 07:45:37;;;;;;;19.95;3.22;;;;;;;-142.75;100.00;77422.72;4994175;28;19921;-65
2023/02/18 07:48:02;;;;;;;22.30;3.47;;;;;;;-142.75;100.00;77432.56;4992860;28;20113;-66
2023/02/18 07:50:28;;;;;;;13.00;2.70;;;;;;;-142.75;100.00;77432.56;4976528;28;20133;-65
2023/02/18 07:52:53;;;;;;;22.77;2.90;;;;;;;-142.75;100.00;77436.50;4994196;28;20034;-65
2023/02/18 07:55:18;;;;;;;;;;;;;;;-142.75;100.00;77416.81;4994576;28;20027;-64
2023/02/18 07:57:56;;;;;;;13.13;2.45;;;;;;;-142.75;100.00;77432.56;4993901;28;19920;-65
2023/02/18 08:00:22;;;;;;;21.90;3.17;;;;;;;-142.75;100.00;77428.63;4993782;28;20113;-66
2023/02/18 08:02:47;;;;;;;14.63;2.60;;;;;;;-142.75;100.00;77446.34;4992632;28;20485;-65
2023/02/18 08:05:12;;;;;;;19.02;2.40;;;;;;;-142.75;100.00;77442.41;4993655;28;20026;-66
2023/02/18 08:07:38;;;;;;;;;;;;;;;-142.75;100.00;77426.66;4994089;28;20030;-67
2023/02/18 08:10:04;;;;;;;24.90;2.45;;;;;;;-142.75;100.00;77440.44;4993306;28;20116;-66
2023/02/18 08:12:30;;;;;;;13.95;2.28;;;;;;;-142.75;100.00;77460.13;4975752;28;20076;-66
2023/02/18 08:14:55;;;;;;;;;;;;;;;-142.75;100.00;77432.56;4994066;28;20030;-65
2023/02/18 08:17:20;;;;;;;16.42;3.30;;;;;;;-142.75;100.00;77430.59;4993578;28;19909;-66
2023/02/18 08:19:45;;;;;;;;;;;;;;;-142.75;100.00;77444.38;4991592;28;20018;-66
2023/02/18 08:22:11;;;;;;;20.00;2.50;;;;;;;-142.75;100.00;77462.13;4993587;28;20397;-65
2023/02/18 08:24:36;;;;;;;;;;;;;;;-142.75;100.00;77450.28;4993911;28;20040;-66
2023/02/18 08:27:01;;;;;;;9.00;2.03;;;;;;;-142.75;100.00;77456.22;4975987;28;19909;-65
2023/02/18 08:29:26;;;;;;;;;;;;;;;-142.75;100.00;77452.25;4993667;28;20045;-63
2023/02/18 08:31:53;;;;;;;15.05;2.28;;;;;;;-142.75;100.00;77460.13;4993501;28;19909;-65
2023/02/18 08:34:18;;;;;;;19.67;2.53;;;;;;;-142.75;100.00;77464.09;4975791;28;20018;-66
2023/02/18 08:36:43;;;;;;;15.15;2.35;;;;;;;-142.75;100.00;77448.34;4993438;28;20026;-66
2023/02/18 08:39:09;;;;;;;16.80;2.22;;;;;;;-142.75;100.00;77442.41;4992999;28;20391;-65
2023/02/18 08:41:34;;;;;;;;;;;;;;;-142.75;100.00;77452.25;4993750;28;20475;-64
2023/02/18 08:43:59;;;;;;;12.68;2.08;;;;;;;-142.75;100.00;77456.22;4993109;28;19948;-66
2023/02/18 08:46:24;;;;;;;;;;;;;;;-142.75;100.00;77440.44;4993560;28;20054;-66
2023/02/18 08:48:50;;;;;;;15.18;2.20;;;;;;;-142.75;100.00;77444.38;4992896;28;19932;-67
2023/02/18 08:51:21;;;;;;;16.17;1.83;;;;;;;-142.75;100.00;77440.44;4993118;28;20115;-65
2023/02/18 08:53:46;;;;;;;14.40;2.05;;;;;;;-142.75;100.00;77448.34;4975352;28;20026;-66
2023/02/18 08:56:13;;;;;;;14.55;1.88;;;;;;;-142.75;100.00;77448.34;4975810;28;20030;-66
2023/02/18 08:58:39;;;;;;;20.33;2.28;;;;;;;-142.75;100.00;77462.13;4972513;28;20056;-65
2023/02/18 09:01:07;;;;;;;14.30;2.67;;;;;;;-142.75;100.00;77464.09;4994060;28;20049;-65
2023/02/18 09:03:33;;;;;;;20.70;3.03;;;;;;;-142.75;100.00;77468.03;4992949;28;20520;-64
2023/02/18 09:05:59;;;;;;;16.20;2.60;;;;;;;-142.75;100.00;77466.03;4992747;28;20071;-66
2023/02/18 09:08:25;;;;;;;17.35;2.10;;;;;;;-142.75;100.00;77479.84;4994026;28;20684;-65
2023/02/18 09:10:58;;;;;;;19.45;2.58;;;;;;;-142.75;100.00;77464.09;4996604;28;20038;-66
2023/02/18 09:13:24;;;;;;;18.25;1.80;;;;;;;-142.75;100.00;77475.91;4994961;28;20030;-66
2023/02/18 09:16:02;;;;;;;14.85;2.35;;;;;;;-142.75;100.00;77468.03;4994999;28;20033;-67
2023/02/18 09:18:27;;;;;;;11.30;2.78;;;;;;;-142.75;100.00;77479.84;4973922;28;20028;-65
2023/02/18 09:20:56;;;;;;;18.45;2.70;;;;;;;-142.75;100.00;77464.09;4996327;28;20114;-65
2023/02/18 09:23:21;;;;;;;10.13;2.42;;;;;;;-142.75;100.00;77507.41;4980055;28;20057;-65
2023/02/18 09:25:46;;;;;;;14.13;2.30;;;;;;;-142.75;100.00;77493.63;4976798;28;20062;-66
2023/02/18 09:28:12;;;;;;;;;;;;;;;-142.75;100.00;77487.72;4993528;28;20050;-65
2023/02/18 09:30:38;;;;;;;10.93;2.30;;;;;;;-142.75;100.00;77505.44;4974368;28;19910;-65
2023/02/18 09:33:04;;;;;;;20.33;2.85;;;;;;;-142.75;100.00;77493.63;4979712;28;20060;-65
2023/02/18 09:35:29;;;;;;;15.02;2.53;;;;;;;-142.75;100.00;77497.56;4995370;28;20023;-66
2023/02/18 09:37:54;;;;;;;23.63;2.72;;;;;;;-142.75;100.00;77491.66;4990096;28;20058;-66
2023/02/18 09:40:31;;;;;;;23.35;3.20;;;;;;;-142.75;100.00;77511.34;4996457;28;20065;-66
2023/02/18 09:42:57;;;;;;;18.98;3.03;;;;;;;-142.75;100.00;77503.47;4976623;28;20026;-66
2023/02/18 09:45:24;;;;;;;16.75;2.45;;;;;;;-142.75;100.00;77511.34;4991884;28;20018;-66
2023/02/18 09:47:50;;;;;;;17.63;3.03;;;;;;;-142.75;100.00;77497.56;4992391;28;20471;-66
2023/02/18 09:50:32;;;;;;;26.95;3.50;;;;;;;-142.75;100.00;77495.59;4992651;28;20018;-64
2023/02/18 09:52:58;;;;;;;15.95;2.22;;;;;;;-142.75;100.00;77497.56;4991528;28;20037;-65
2023/02/18 09:55:29;;;;;;;9.68;2.30;;;;;;;-142.75;100.00;77477.88;4991764;28;20042;-66
2023/02/18 09:58:11;;;;;;;15.00;2.10;;;;;;;-142.75;100.00;77471.97;4992961;28;20036;-66
2023/02/18 10:00:39;;;;;;;17.42;2.40;;;;;;;-142.75;100.00;77479.84;4993552;28;20014;-66
2023/02/18 10:03:13;;;;;;;21.48;2.88;;;;;;;-142.75;100.00;77471.97;4994357;28;20452;-66
2023/02/18 10:05:46;;;;;;;17.98;2.47;;;;;;;-142.75;100.00;77477.88;4993459;28;20093;-64
2023/02/18 10:08:25;;;;;;;15.35;3.35;;;;;;;-142.75;100.00;77468.03;4993892;28;20043;-64
2023/02/18 10:10:50;;;;;;;13.30;2.20;;;;;;;-142.75;100.00;77456.22;4991712;28;20029;-65
2023/02/18 10:13:19;;;;;;;21.27;2.42;;;;;;;-142.75;100.00;77452.25;4991654;28;20379;-65
2023/02/18 10:15:45;;;;;;;11.93;1.92;;;;;;;-142.75;100.00;77448.34;4973010;28;20097;-64
2023/02/18 10:18:17;;;;;;;15.23;1.95;;;;;;;-142.75;100.00;77456.22;4973547;28;20106;-62
2023/02/18 10:20:42;;;;;;;12.13;1.88;;;;;;;-142.75;100.00;77468.03;4991545;28;20026;-66
2023/02/18 10:23:10;;;;;;;12.98;1.80;;;;;;;-142.75;100.00;77442.41;4991428;28;20029;-65
2023/02/18 10:25:42;;;;;;;20.17;2.35;;;;;;;-142.75;100.00;77452.25;4991237;28;20032;-63
2023/02/18 10:28:09;;;;;;;9.43;2.13;;;;;;;-142.75;100.00;77446.34;4991149;28;20028;-65
2023/02/18 10:30:45;;;;;;;12.93;2.08;;;;;;;-142.75;100.00;77444.38;4991309;28;20026;-66
2023/02/18 10:33:29;;;;;;;12.65;2.15;;;;;;;-142.75;100.00;77448.34;4973621;28;20049;-64
2023/02/18 10:36:25;;;;;;;12.35;2.10;;;;;;;-142.75;100.00;77456.22;4991267;28;20384;-66
2023/02/18 10:39:11;;;;;;;18.27;2.83;;;;;;;-142.75;100.00;77456.22;4990606;28;20022;-67
2023/02/18 10:42:00;;;;;;;18.85;2.45;;;;;;;-142.75;100.00;77452.25;4991241;28;20026;-65
2023/02/18 10:44:32;;;;;;;7.90;2.17;;;;;;;-142.75;100.00;77450.28;4983076;28;20048;-65
2023/02/18 10:47:06;;;;;;;12.45;2.08;;;;;;;-142.75;100.00;77448.34;4973704;28;20065;-65
2023/02/18 10:49:53;;;;;;;16.15;2.47;;;;;;;-142.75;100.00;77452.25;4991115;28;20420;-66
2023/02/18 10:52:18;;;;;;;11.60;1.73;;;;;;;-142.75;100.00;77458.16;4991189;28;20026;-66
2023/02/18 10:54:56;;;;;;;19.17;2.10;;;;;;;-142.75;100.00;77464.09;4991158;28;20084;-65
2023/02/18 10:57:23;;;;;;;16.60;1.95;;;;;;;-142.75;100.00;77444.38;4989837;28;20028;-66
2023/02/18 11:00:13;;;;;;;14.65;2.47;;;;;;;-142.75;100.00;77430.59;4990451;28;20018;-65
2023/02/18 11:02:39;;;;;;;13.57;2.38;;;;;;;-142.75;100.00;77405.00;4973711;28;20061;-64
2023/02/18 11:05:21;;;;;;;13.40;3.08;;;;;;;-142.75;100.00;77397.13;4990993;28;20110;-66
2023/02/18 11:07:49;;;;;;;14.27;1.90;;;;;;;-142.75;100.00;77389.25;4990759;28;20033;-66
2023/02/18 11:10:17;;;;;;;15.00;2.38;;;;;;;-142.75;100.00;77385.31;4973270;28;20030;-65
2023/02/18 11:12:46;;;;;;;14.80;2.13;;;;;;;-142.75;100.00;77389.25;4991049;28;20034;-66
2023/02/18 11:15:18;;;;;;;9.35;2.30;;;;;;;-142.75;100.00;77365.63;4973418;28;20046;-65
2023/02/18 11:17:49;;;;;;;11.82;2.15;;;;;;;-142.75;100.00;77363.66;4990839;28;20098;-66
2023/02/18 11:20:25;;;;;;;11.18;1.67;;;;;;;-142.75;100.00;77379.41;4990882;28;20022;-65